首页
METAR-TAF:

METAR-TAF

机场 :

Shelby, 北卡罗来纳州, 美国

纬度: 35-15N, 经度: 081-36W, 海拔: 258米

当前天气观测

该预报发布于29分钟前的18:00 UTC
风速3节,风向东北
温度 4°C
湿度 81%
气压 1019 hPa
能見度: 16.1公里
阴天层高于4700英尺

METAR: KEHO 101800Z AUTO 05003KT 10SM OVC047 04/01 A3008 RMK AO2 T00360006

时间: 13:29 (18:29 UTC)


TAF: 丢失

超过4000个机场的气象观测和天气预报(METAR&TAF报告)。

可查询的气象台以黄色和红色小点在地图上表示。

将鼠标移到小点上方,可查看气象台名称。

然后点击查看天气观测和预报。

如需切换地图:点击带黑十字的绿色按钮放大地图;点击带横线的绿色按钮缩小地图;或者点击绿色箭头查看邻近地区的地图。


METAR-TAF: